Time;durP1;ratioP1;P1;durP2;ratioP2;P2;SDS_P1;SDS_P2;PMS_P1;PMS_P2;Temp;Humidity;BMP_temperature;BMP_pressure;BME280_temperature;BME280_humidity;BME280_pressure;Samples;Min_cycle;Max_cycle;Signal;HPM_P1;HPM_P2
2022/05/13 00:00:57;;;;;;;5.65;2.20;;;;;;;;;;5010887;28;20482;-76
2022/05/13 00:03:23;;;;;;;9.65;2.60;;;;;;;;;;5010721;28;20417;-77
2022/05/13 00:05:50;;;;;;;7.75;2.53;;;;;;;;;;5010419;28;20514;-77
2022/05/13 00:08:16;;;;;;;8.57;2.63;;;;;;;;;;5010970;28;20046;-77
2022/05/13 00:10:43;;;;;;;8.68;2.42;;;;;;;;;;5010267;28;20046;-77
2022/05/13 00:13:09;;;;;;;7.13;2.85;;;;;;;;;;5010369;28;20038;-77
2022/05/13 00:15:35;;;;;;;9.60;2.90;;;;;;;;;;5010406;28;20042;-77
2022/05/13 00:18:02;;;;;;;8.55;2.38;;;;;;;;;;5010149;28;20046;-77
2022/05/13 00:20:28;;;;;;;8.38;2.30;;;;;;;;;;4994758;28;20057;-77
2022/05/13 00:22:55;;;;;;;8.57;2.50;;;;;;;;;;5010024;28;20064;-77
2022/05/13 00:25:23;;;;;;;6.40;2.25;;;;;;;;;;5010749;28;20045;-77
2022/05/13 00:27:50;;;;;;;8.18;2.60;;;;;;;;;;5010367;28;20544;-77
2022/05/13 00:30:16;;;;;;;10.80;2.47;;;;;;;;;;5010508;28;20041;-77
2022/05/13 00:32:44;;;;;;;7.05;3.05;;;;;;;;;;5010055;28;20038;-77
2022/05/13 00:35:11;;;;;;;7.75;2.15;;;;;;;;;;5010130;28;20109;-77
2022/05/13 00:37:37;;;;;;;6.97;2.33;;;;;;;;;;5010287;28;20057;-77
2022/05/13 00:40:03;;;;;;;9.18;2.53;;;;;;;;;;5009844;28;20045;-77
2022/05/13 00:42:30;;;;;;;11.73;2.85;;;;;;;;;;5010352;28;20132;-77
2022/05/13 00:44:59;;;;;;;10.07;2.67;;;;;;;;;;5008905;28;20038;-77
2022/05/13 00:47:25;;;;;;;8.50;2.83;;;;;;;;;;5009732;28;20482;-77
2022/05/13 00:49:52;;;;;;;6.43;2.33;;;;;;;;;;5009987;28;20038;-77
2022/05/13 00:52:18;;;;;;;8.93;2.45;;;;;;;;;;5009712;28;20030;-77
2022/05/13 00:54:44;;;;;;;6.35;2.40;;;;;;;;;;4993462;28;20176;-77
2022/05/13 00:57:13;;;;;;;8.93;2.85;;;;;;;;;;5009494;28;20104;-77
2022/05/13 00:59:42;;;;;;;8.93;2.58;;;;;;;;;;4993440;28;20501;-77
2022/05/13 01:02:08;;;;;;;10.80;3.03;;;;;;;;;;4993439;28;20477;-77
2022/05/13 01:04:34;;;;;;;10.77;2.80;;;;;;;;;;5010523;28;20072;-77
2022/05/13 01:07:03;;;;;;;11.23;3.15;;;;;;;;;;5009199;28;20129;-77
2022/05/13 01:09:32;;;;;;;14.73;3.03;;;;;;;;;;5009671;28;20042;-77
2022/05/13 01:11:58;;;;;;;6.57;2.50;;;;;;;;;;5007947;28;20120;-77
2022/05/13 01:14:26;;;;;;;7.63;2.55;;;;;;;;;;5009923;28;20056;-77
2022/05/13 01:19:37;;;;;;;14.13;2.90;;;;;;;;;;5009439;28;20046;-77
2022/05/13 01:22:16;;;;;;;9.40;3.35;;;;;;;;;;5009105;28;20038;-77
2022/05/13 01:24:42;;;;;;;10.93;2.78;;;;;;;;;;5009343;28;20042;-77
2022/05/13 01:27:08;;;;;;;8.80;2.85;;;;;;;;;;5009419;28;20093;-77
2022/05/13 01:29:35;;;;;;;11.27;3.00;;;;;;;;;;5009139;28;20042;-77
2022/05/13 01:32:01;;;;;;;12.07;3.25;;;;;;;;;;5009319;28;20489;-77
2022/05/13 01:34:27;;;;;;;14.13;3.55;;;;;;;;;;4993020;28;20088;-77
2022/05/13 01:36:53;;;;;;;9.57;2.58;;;;;;;;;;5009169;28;20046;-77
2022/05/13 01:39:19;;;;;;;8.98;2.80;;;;;;;;;;5009176;28;20124;-77
2022/05/13 01:41:46;;;;;;;9.77;2.88;;;;;;;;;;4992765;28;20045;-77
2022/05/13 01:44:12;;;;;;;7.45;2.90;;;;;;;;;;5009959;28;20092;-77
2022/05/13 01:46:38;;;;;;;10.68;3.20;;;;;;;;;;5009162;28;20121;-77
2022/05/13 01:49:04;;;;;;;8.35;2.90;;;;;;;;;;5008740;28;20033;-77
2022/05/13 01:51:30;;;;;;;11.13;2.97;;;;;;;;;;4992792;28;20048;-77
2022/05/13 01:53:56;;;;;;;13.90;3.10;;;;;;;;;;5008841;28;20046;-77
2022/05/13 01:56:22;;;;;;;6.53;2.90;;;;;;;;;;5009282;28;20350;-77
2022/05/13 01:58:48;;;;;;;8.63;2.88;;;;;;;;;;5009711;28;20362;-77
2022/05/13 02:01:15;;;;;;;11.38;3.05;;;;;;;;;;5005365;28;20322;-77
2022/05/13 02:03:44;;;;;;;11.27;2.95;;;;;;;;;;4990514;28;20145;-77
2022/05/13 02:06:11;;;;;;;13.40;3.40;;;;;;;;;;4991669;28;20050;-77
2022/05/13 02:08:37;;;;;;;12.27;3.35;;;;;;;;;;4992203;28;20052;-77
2022/05/13 02:11:03;;;;;;;14.60;3.30;;;;;;;;;;5024791;28;20129;-77
2022/05/13 02:13:29;;;;;;;14.05;3.50;;;;;;;;;;5008955;28;20053;-77
2022/05/13 02:15:55;;;;;;;10.98;3.20;;;;;;;;;;5008690;28;20107;-77
2022/05/13 02:18:22;;;;;;;13.38;3.35;;;;;;;;;;5009005;28;20397;-77
2022/05/13 02:20:48;;;;;;;12.68;3.20;;;;;;;;;;5009860;28;20440;-77
2022/05/13 02:23:14;;;;;;;9.35;2.97;;;;;;;;;;5008565;28;20046;-77
2022/05/13 02:25:42;;;;;;;10.65;3.67;;;;;;;;;;5008575;28;20046;-77
2022/05/13 02:28:08;;;;;;;12.77;3.92;;;;;;;;;;5008205;28;20046;-77
2022/05/13 02:30:34;;;;;;;15.10;3.50;;;;;;;;;;4992902;28;20450;-77
2022/05/13 02:33:01;;;;;;;17.08;3.50;;;;;;;;;;5008350;28;20042;-77
2022/05/13 02:35:27;;;;;;;10.13;3.40;;;;;;;;;;5008651;28;20046;-77
2022/05/13 02:37:53;;;;;;;14.05;3.92;;;;;;;;;;5008423;28;20478;-77
2022/05/13 02:40:20;;;;;;;11.32;3.53;;;;;;;;;;5024921;28;20420;-77
2022/05/13 02:42:46;;;;;;;15.80;3.40;;;;;;;;;;5008391;28;20038;-77
2022/05/13 02:45:13;;;;;;;15.05;4.00;;;;;;;;;;5008063;28;20045;-78
2022/05/13 02:47:40;;;;;;;12.30;3.53;;;;;;;;;;4992162;28;20046;-77
2022/05/13 02:50:19;;;;;;;13.70;3.53;;;;;;;;;;5008507;28;20548;-77
2022/05/13 02:52:46;;;;;;;11.00;3.38;;;;;;;;;;5008692;28;20482;-77
2022/05/13 02:55:12;;;;;;;11.73;3.20;;;;;;;;;;5007750;28;20038;-77
2022/05/13 02:57:38;;;;;;;10.63;3.60;;;;;;;;;;5008746;28;20049;-77
2022/05/13 03:00:05;;;;;;;9.20;3.10;;;;;;;;;;4991799;28;20508;-77
2022/05/13 03:02:31;;;;;;;12.80;3.22;;;;;;;;;;5008375;28;20421;-77
2022/05/13 03:04:58;;;;;;;10.93;3.28;;;;;;;;;;5007896;28;20090;-77
2022/05/13 03:07:24;;;;;;;15.35;3.25;;;;;;;;;;5008580;28;20441;-77
2022/05/13 03:09:50;;;;;;;16.10;3.53;;;;;;;;;;4993647;28;20041;-77
2022/05/13 03:12:16;;;;;;;10.38;3.00;;;;;;;;;;4999849;28;20046;-77
2022/05/13 03:14:42;;;;;;;17.42;4.00;;;;;;;;;;4992884;28;20057;-77
2022/05/13 03:17:08;;;;;;;13.63;3.38;;;;;;;;;;4992117;28;20129;-77
2022/05/13 03:19:38;;;;;;;13.88;3.53;;;;;;;;;;4992388;28;20054;-77
2022/05/13 03:22:07;;;;;;;16.88;3.33;;;;;;;;;;4991706;28;20046;-77
2022/05/13 03:24:34;;;;;;;16.08;3.22;;;;;;;;;;4992136;28;20050;-77
2022/05/13 03:27:00;;;;;;;13.73;3.15;;;;;;;;;;4992276;28;20132;-77
2022/05/13 03:29:27;;;;;;;13.70;3.15;;;;;;;;;;4992552;28;20042;-77
2022/05/13 03:31:54;;;;;;;17.08;3.60;;;;;;;;;;4991734;28;20042;-77
2022/05/13 03:34:22;;;;;;;12.43;3.72;;;;;;;;;;4991953;28;20081;-77
2022/05/13 03:36:52;;;;;;;12.82;3.35;;;;;;;;;;4991717;28;20050;-77
2022/05/13 03:39:18;;;;;;;14.82;3.60;;;;;;;;;;4992402;28;20056;-77
2022/05/13 03:41:44;;;;;;;18.00;3.80;;;;;;;;;;4992238;28;20042;-77
2022/05/13 03:44:10;;;;;;;14.90;3.58;;;;;;;;;;4991673;28;20046;-76
2022/05/13 03:46:37;;;;;;;18.33;3.95;;;;;;;;;;4993239;28;20042;-76
2022/05/13 03:49:03;;;;;;;18.48;3.60;;;;;;;;;;4991612;28;20050;-76
2022/05/13 03:51:29;;;;;;;15.52;3.72;;;;;;;;;;4991965;28;20056;-76
2022/05/13 03:53:57;;;;;;;15.68;3.53;;;;;;;;;;5007858;28;20082;-76
2022/05/13 03:56:24;;;;;;;19.42;3.60;;;;;;;;;;4975520;28;20157;-76
2022/05/13 03:58:50;;;;;;;13.70;2.90;;;;;;;;;;4991347;28;20104;-77
2022/05/13 04:01:16;;;;;;;17.75;3.55;;;;;;;;;;4991595;28;20057;-76
2022/05/13 04:03:43;;;;;;;15.43;3.47;;;;;;;;;;4994222;28;20518;-76
2022/05/13 04:08:56;;;;;;;12.95;3.25;;;;;;;;;;5010487;28;20107;-77
2022/05/13 04:11:33;;;;;;;11.30;2.90;;;;;;;;;;5010631;28;20091;-76
2022/05/13 04:16:44;;;;;;;15.85;2.97;;;;;;;;;;5010599;28;20496;-77
2022/05/13 04:19:11;;;;;;;14.73;3.25;;;;;;;;;;5010537;28;20038;-77
2022/05/13 04:21:38;;;;;;;8.40;2.53;;;;;;;;;;5011984;28;20074;-76
2022/05/13 04:24:06;;;;;;;11.15;2.50;;;;;;;;;;5010476;28;20041;-77
2022/05/13 04:26:32;;;;;;;10.93;2.60;;;;;;;;;;5010838;28;20050;-77
2022/05/13 04:28:59;;;;;;;10.77;2.83;;;;;;;;;;5010173;28;20049;-76
2022/05/13 04:31:27;;;;;;;12.82;2.90;;;;;;;;;;5010422;28;20129;-76
2022/05/13 04:33:54;;;;;;;10.75;3.03;;;;;;;;;;5010481;28;20500;-77
2022/05/13 04:36:21;;;;;;;10.88;2.50;;;;;;;;;;5010922;28;20049;-77
2022/05/13 04:38:47;;;;;;;11.18;2.65;;;;;;;;;;5010263;28;20057;-77
2022/05/13 04:43:59;;;;;;;9.60;2.10;;;;;;;;;;5009745;28;20041;-77
2022/05/13 04:46:25;;;;;;;7.93;2.20;;;;;;;;;;5010590;28;20395;-77
2022/05/13 04:48:53;;;;;;;10.90;2.15;;;;;;;;;;5010249;28;20092;-77
2022/05/13 04:51:19;;;;;;;9.07;2.00;;;;;;;;;;5009936;28;20120;-77
2022/05/13 04:53:46;;;;;;;11.68;2.55;;;;;;;;;;5009827;28;20045;-77
2022/05/13 04:56:12;;;;;;;10.48;2.45;;;;;;;;;;5009568;28;20038;-77
2022/05/13 04:58:39;;;;;;;10.68;2.92;;;;;;;;;;5009681;28;20042;-77
2022/05/13 05:01:06;;;;;;;11.30;2.85;;;;;;;;;;5010509;28;20429;-77
2022/05/13 05:03:33;;;;;;;10.95;2.30;;;;;;;;;;5009369;28;20137;-77
2022/05/13 05:06:00;;;;;;;11.05;2.55;;;;;;;;;;5009721;28;20065;-77
2022/05/13 05:08:27;;;;;;;7.18;2.15;;;;;;;;;;4992871;28;20041;-77
2022/05/13 05:10:53;;;;;;;4.53;2.17;;;;;;;;;;5009994;28;20038;-77
2022/05/13 05:13:20;;;;;;;11.07;2.42;;;;;;;;;;4990102;28;20125;-77
2022/05/13 05:15:46;;;;;;;7.95;1.75;;;;;;;;;;4990484;28;20480;-76
2022/05/13 05:18:13;;;;;;;6.22;1.52;;;;;;;;;;4989831;28;20042;-76
2022/05/13 05:20:40;;;;;;;7.65;1.85;;;;;;;;;;4989998;28;20053;-76
2022/05/13 05:23:06;;;;;;;13.88;2.42;;;;;;;;;;4989822;28;20097;-76
2022/05/13 05:25:33;;;;;;;8.60;2.15;;;;;;;;;;4989675;28;20133;-77
2022/05/13 05:27:59;;;;;;;9.65;1.95;;;;;;;;;;4989822;28;20494;-77
2022/05/13 05:30:26;;;;;;;6.30;1.88;;;;;;;;;;4990205;28;20673;-77
2022/05/13 05:32:52;;;;;;;10.43;2.08;;;;;;;;;;4989403;28;20437;-76
2022/05/13 05:35:20;;;;;;;6.15;1.90;;;;;;;;;;4989681;28;20409;-76
2022/05/13 05:37:46;;;;;;;8.02;1.70;;;;;;;;;;4989768;28;20046;-77
2022/05/13 05:40:13;;;;;;;8.23;1.85;;;;;;;;;;4989375;28;20097;-76
2022/05/13 05:42:42;;;;;;;6.25;1.80;;;;;;;;;;4989734;28;20077;-76
2022/05/13 05:45:10;;;;;;;5.55;1.98;;;;;;;;;;4989321;28;20499;-77
2022/05/13 05:47:39;;;;;;;7.32;2.28;;;;;;;;;;4989634;28;20114;-77
2022/05/13 05:50:07;;;;;;;7.25;1.98;;;;;;;;;;4989783;28;20043;-77
2022/05/13 05:52:33;;;;;;;7.43;1.50;;;;;;;;;;4989725;28;20050;-77
2022/05/13 05:58:01;;;;;;;5.00;1.40;;;;;;;;;;4989803;28;20521;-77
2022/05/13 06:00:27;;;;;;;7.03;1.75;;;;;;;;;;4989214;28;20046;-77
2022/05/13 06:02:54;;;;;;;6.22;1.50;;;;;;;;;;4989161;28;20129;-77
2022/05/13 06:05:20;;;;;;;3.15;1.20;;;;;;;;;;4988811;28;20054;-77
2022/05/13 06:07:46;;;;;;;7.20;1.55;;;;;;;;;;5005700;28;20561;-77
2022/05/13 06:10:13;;;;;;;6.07;1.50;;;;;;;;;;4972645;28;20074;-77
2022/05/13 06:12:40;;;;;;;5.30;1.50;;;;;;;;;;5000103;28;20129;-77
2022/05/13 06:15:06;;;;;;;8.00;1.70;;;;;;;;;;5008749;28;20078;-77
2022/05/13 06:17:32;;;;;;;7.65;1.50;;;;;;;;;;5008978;28;20050;-77
2022/05/13 06:19:58;;;;;;;5.10;1.58;;;;;;;;;;5008428;28;20041;-77
2022/05/13 06:22:24;;;;;;;9.35;1.73;;;;;;;;;;4992444;28;20053;-76
2022/05/13 06:24:51;;;;;;;5.78;1.60;;;;;;;;;;5008489;28;20037;-77
2022/05/13 06:27:17;;;;;;;7.75;1.55;;;;;;;;;;5008608;28;20042;-76
2022/05/13 06:29:43;;;;;;;7.38;1.65;;;;;;;;;;4992294;28;20050;-76
2022/05/13 06:32:09;;;;;;;8.30;1.58;;;;;;;;;;4992554;28;20049;-77
2022/05/13 06:34:35;;;;;;;5.68;1.42;;;;;;;;;;5008347;28;20038;-77
2022/05/13 06:37:01;;;;;;;6.53;1.70;;;;;;;;;;5008644;28;20494;-76
2022/05/13 06:39:27;;;;;;;8.57;2.10;;;;;;;;;;5008890;28;20533;-76
2022/05/13 06:41:53;;;;;;;7.45;1.83;;;;;;;;;;5009645;28;20038;-76
2022/05/13 06:44:19;;;;;;;9.82;2.13;;;;;;;;;;5011445;28;20053;-76
2022/05/13 06:46:47;;;;;;;7.35;1.42;;;;;;;;;;5012621;28;20524;-77
2022/05/13 06:49:14;;;;;;;7.35;1.80;;;;;;;;;;5012888;28;20049;-76
2022/05/13 06:51:41;;;;;;;9.18;1.70;;;;;;;;;;5012672;28;20133;-76
2022/05/13 06:54:09;;;;;;;7.70;1.92;;;;;;;;;;5013717;28;20064;-76
2022/05/13 06:56:36;;;;;;;9.50;1.58;;;;;;;;;;5013476;28;20082;-77
2022/05/13 06:59:02;;;;;;;5.82;1.48;;;;;;;;;;4996024;28;20042;-77
2022/05/13 07:01:28;;;;;;;9.23;1.77;;;;;;;;;;5012065;28;20041;-77
2022/05/13 07:03:54;;;;;;;4.10;1.52;;;;;;;;;;5011867;28;20054;-77
2022/05/13 07:06:21;;;;;;;7.28;1.60;;;;;;;;;;5012198;28;20085;-78
2022/05/13 07:08:49;;;;;;;9.55;2.25;;;;;;;;;;5011997;28;20531;-79
2022/05/13 07:11:16;;;;;;;8.40;1.35;;;;;;;;;;5012073;28;20049;-78
2022/05/13 07:13:43;;;;;;;8.75;1.70;;;;;;;;;;5013464;28;20042;-78
2022/05/13 07:16:09;;;;;;;6.05;1.63;;;;;;;;;;4995375;28;20042;-79
2022/05/13 07:18:36;;;;;;;8.10;1.73;;;;;;;;;;5011893;28;20041;-78
2022/05/13 07:21:03;;;;;;;6.43;1.75;;;;;;;;;;5011829;28;20054;-78
2022/05/13 07:23:29;;;;;;;4.88;1.40;;;;;;;;;;5012115;28;20089;-78
2022/05/13 07:25:56;;;;;;;5.15;1.25;;;;;;;;;;4995041;28;20049;-79
2022/05/13 07:28:22;;;;;;;8.10;1.55;;;;;;;;;;5011883;28;20048;-78
2022/05/13 07:30:49;;;;;;;6.47;1.20;;;;;;;;;;5011961;28;20478;-79
2022/05/13 07:33:15;;;;;;;4.20;1.20;;;;;;;;;;5011876;28;20046;-79
2022/05/13 07:35:41;;;;;;;5.38;1.23;;;;;;;;;;5011689;28;20048;-78
2022/05/13 07:38:08;;;;;;;6.28;1.55;;;;;;;;;;5011394;28;20038;-79
2022/05/13 07:43:19;;;;;;;6.53;1.83;;;;;;;;;;5012998;28;20132;-78
2022/05/13 07:45:45;;;;;;;10.02;1.90;;;;;;;;;;5012866;28;20489;-79
2022/05/13 07:48:11;;;;;;;7.22;1.55;;;;;;;;;;5012994;28;20053;-78
2022/05/13 07:50:38;;;;;;;6.03;1.23;;;;;;;;;;5012151;28;20046;-79
2022/05/13 07:53:04;;;;;;;6.13;1.40;;;;;;;;;;4994872;28;20073;-79
2022/05/13 07:55:31;;;;;;;6.68;1.40;;;;;;;;;;5010734;28;20049;-78
2022/05/13 07:57:58;;;;;;;4.95;1.20;;;;;;;;;;5011139;28;20505;-78
2022/05/13 08:00:25;;;;;;;5.25;1.30;;;;;;;;;;5011934;28;20508;-78
2022/05/13 08:02:51;;;;;;;6.20;1.40;;;;;;;;;;5013070;28;20084;-79
2022/05/13 08:05:17;;;;;;;6.68;1.45;;;;;;;;;;5010928;28;20061;-78
2022/05/13 08:07:44;;;;;;;6.65;1.50;;;;;;;;;;5011094;28;20486;-79
2022/05/13 08:10:10;;;;;;;8.85;1.85;;;;;;;;;;5010970;28;20050;-78
2022/05/13 08:12:36;;;;;;;5.43;1.85;;;;;;;;;;5010810;28;20498;-78
2022/05/13 08:15:03;;;;;;;5.78;1.70;;;;;;;;;;5010689;28;20677;-79
2022/05/13 08:17:33;;;;;;;5.28;1.27;;;;;;;;;;5011625;28;20037;-78
2022/05/13 08:19:59;;;;;;;6.15;1.50;;;;;;;;;;4994066;28;20046;-78
2022/05/13 08:22:25;;;;;;;6.20;1.45;;;;;;;;;;4994606;28;20046;-79
2022/05/13 08:24:52;;;;;;;5.43;1.35;;;;;;;;;;5010781;28;20490;-78
2022/05/13 08:27:18;;;;;;;6.78;1.60;;;;;;;;;;5012390;28;20387;-78
2022/05/13 08:29:44;;;;;;;6.53;1.40;;;;;;;;;;5010988;28;20509;-78
2022/05/13 08:32:10;;;;;;;6.07;1.60;;;;;;;;;;4994358;28;20474;-78
2022/05/13 08:34:36;;;;;;;4.90;1.20;;;;;;;;;;5012032;28;20052;-78
2022/05/13 08:37:02;;;;;;;9.30;1.58;;;;;;;;;;4993641;28;20095;-78
2022/05/13 08:39:28;;;;;;;4.97;1.20;;;;;;;;;;4994523;28;20057;-78
2022/05/13 08:41:54;;;;;;;6.28;1.38;;;;;;;;;;5010455;28;20060;-78
2022/05/13 08:44:20;;;;;;;7.10;1.60;;;;;;;;;;5010041;28;20042;-78
2022/05/13 08:47:02;;;;;;;6.35;1.33;;;;;;;;;;4993900;28;20042;-79
2022/05/13 08:49:49;;;;;;;8.05;1.95;;;;;;;;;;5010647;28;20084;-78
2022/05/13 08:55:21;;;;;;;5.72;1.60;;;;;;;;;;5010405;28;20559;-78
2022/05/13 08:57:49;;;;;;;5.63;1.30;;;;;;;;;;5009840;28;20096;-78
2022/05/13 09:00:29;;;;;;;7.07;1.40;;;;;;;;;;5010346;28;20124;-78
2022/05/13 09:02:58;;;;;;;6.22;1.60;;;;;;;;;;5009877;28;20046;-78
2022/05/13 09:05:24;;;;;;;4.30;1.20;;;;;;;;;;5009968;28;20441;-78
2022/05/13 09:07:51;;;;;;;5.20;1.30;;;;;;;;;;4992702;28;20389;-78
2022/05/13 09:10:17;;;;;;;5.22;1.40;;;;;;;;;;5010300;28;20068;-78
2022/05/13 09:12:52;;;;;;;6.55;1.42;;;;;;;;;;4995010;28;20038;-79
2022/05/13 09:15:21;;;;;;;4.85;1.80;;;;;;;;;;4990312;28;20065;-78
2022/05/13 09:18:00;;;;;;;5.55;1.40;;;;;;;;;;4989730;28;20045;-78
2022/05/13 09:20:26;;;;;;;4.35;1.42;;;;;;;;;;4990416;28;20104;-78
2022/05/13 09:22:54;;;;;;;6.68;1.33;;;;;;;;;;4989848;28;20049;-78
2022/05/13 09:25:26;;;;;;;6.13;1.25;;;;;;;;;;4990024;28;20521;-78
2022/05/13 09:28:00;;;;;;;5.03;1.20;;;;;;;;;;4990000;28;20050;-78
2022/05/13 09:30:34;;;;;;;6.22;1.38;;;;;;;;;;4989952;28;20065;-78
2022/05/13 09:33:17;;;;;;;4.47;1.50;;;;;;;;;;4989619;28;20038;-78
2022/05/13 09:35:43;;;;;;;4.80;1.33;;;;;;;;;;4990218;28;20475;-78
2022/05/13 09:38:23;;;;;;;5.50;1.33;;;;;;;;;;4989387;28;20069;-78
2022/05/13 09:40:57;;;;;;;6.72;1.27;;;;;;;;;;4991060;28;20053;-78
2022/05/13 09:43:49;;;;;;;6.45;1.60;;;;;;;;;;4989755;28;20050;-79
2022/05/13 09:46:24;;;;;;;4.30;1.60;;;;;;;;;;4987115;28;20090;-78
2022/05/13 09:48:58;;;;;;;8.23;1.65;;;;;;;;;;4989689;28;20046;-79
2022/05/13 09:51:26;;;;;;;7.30;1.55;;;;;;;;;;4990656;28;20034;-78
2022/05/13 09:54:01;;;;;;;8.45;1.75;;;;;;;;;;4989295;28;20046;-78
2022/05/13 09:56:34;;;;;;;8.23;1.75;;;;;;;;;;4989482;28;20100;-78
2022/05/13 09:59:04;;;;;;;8.55;1.67;;;;;;;;;;4989407;28;20039;-78
2022/05/13 10:01:30;;;;;;;5.10;1.63;;;;;;;;;;4990661;28;20045;-78
2022/05/13 10:04:00;;;;;;;7.70;1.70;;;;;;;;;;4988962;28;20061;-78
2022/05/13 10:06:31;;;;;;;4.82;1.65;;;;;;;;;;4989430;28;20058;-78
2022/05/13 10:13:57;;;;;;;11.75;1.88;;;;;;;;;;4988991;28;20046;-79
2022/05/13 10:14:35;;;;;;;5.22;1.30;;;;;;;;;;4989046;28;20056;-78
2022/05/13 10:17:04;;;;;;;5.22;1.30;;;;;;;;;;4988632;28;20146;-78
2022/05/13 10:19:46;;;;;;;4.88;1.35;;;;;;;;;;4989125;28;20046;-79
2022/05/13 10:22:17;;;;;;;9.20;1.60;;;;;;;;;;4988877;28;20050;-79
2022/05/13 10:24:47;;;;;;;12.40;1.77;;;;;;;;;;4989002;28;20384;-79
2022/05/13 10:27:17;;;;;;;6.80;1.67;;;;;;;;;;4988680;28;20054;-79
2022/05/13 10:29:47;;;;;;;5.03;1.30;;;;;;;;;;4989686;28;20437;-79
2022/05/13 10:32:19;;;;;;;7.35;1.67;;;;;;;;;;4988612;28;20046;-79
2022/05/13 10:34:48;;;;;;;7.57;1.60;;;;;;;;;;4990521;28;20046;-79
2022/05/13 10:37:17;;;;;;;6.63;1.60;;;;;;;;;;4988348;28;20128;-78
2022/05/13 10:39:44;;;;;;;6.88;1.65;;;;;;;;;;4989031;28;20050;-79
2022/05/13 10:42:25;;;;;;;5.53;1.65;;;;;;;;;;4988774;28;20180;-78
2022/05/13 10:44:51;;;;;;;7.68;2.05;;;;;;;;;;4988954;28;20042;-78
2022/05/13 10:47:20;;;;;;;6.75;1.50;;;;;;;;;;4988485;28;20402;-78
2022/05/13 10:49:46;;;;;;;3.15;1.35;;;;;;;;;;4989157;28;20486;-79
2022/05/13 10:52:12;;;;;;;7.80;2.17;;;;;;;;;;4988811;28;20560;-78
2022/05/13 10:54:43;;;;;;;8.75;1.60;;;;;;;;;;4988571;28;20050;-79
2022/05/13 10:57:28;;;;;;;8.65;1.63;;;;;;;;;;4988520;28;20085;-78
2022/05/13 11:00:00;;;;;;;4.05;1.40;;;;;;;;;;4988907;28;20052;-79
2022/05/13 11:02:39;;;;;;;6.20;1.40;;;;;;;;;;4988388;28;20057;-79
2022/05/13 11:05:11;;;;;;;6.07;1.45;;;;;;;;;;4988013;28;20109;-78
2022/05/13 11:07:37;;;;;;;6.03;1.42;;;;;;;;;;4988898;28;20141;-78
2022/05/13 11:10:10;;;;;;;5.70;1.63;;;;;;;;;;4988459;28;20216;-79
2022/05/13 11:12:42;;;;;;;7.72;1.88;;;;;;;;;;5003480;28;20046;-79
2022/05/13 11:15:12;;;;;;;7.35;1.52;;;;;;;;;;5008076;28;20065;-78
2022/05/13 11:17:53;;;;;;;8.13;1.88;;;;;;;;;;5007922;28;20132;-78
2022/05/13 11:20:29;;;;;;;4.78;1.50;;;;;;;;;;5007758;28;20041;-78
2022/05/13 11:23:01;;;;;;;7.07;1.67;;;;;;;;;;5008450;28;20073;-78
2022/05/13 11:28:18;;;;;;;7.55;1.63;;;;;;;;;;5008130;28;20042;-78
2022/05/13 11:30:48;;;;;;;6.18;1.55;;;;;;;;;;5010509;28;20046;-78
2022/05/13 11:33:14;;;;;;;10.25;1.98;;;;;;;;;;4994931;28;20046;-78
2022/05/13 11:35:41;;;;;;;7.22;1.67;;;;;;;;;;5011693;28;20046;-78
2022/05/13 11:38:32;;;;;;;5.97;1.80;;;;;;;;;;4994844;28;20077;-78
2022/05/13 11:41:10;;;;;;;7.65;2.03;;;;;;;;;;5012427;28;20147;-78
2022/05/13 11:43:36;;;;;;;7.45;1.60;;;;;;;;;;5011920;28;20061;-78
2022/05/13 11:46:02;;;;;;;7.75;1.63;;;;;;;;;;4995002;28;20053;-78
2022/05/13 11:48:30;;;;;;;6.85;2.00;;;;;;;;;;5011072;28;20048;-78
2022/05/13 11:51:02;;;;;;;8.30;1.85;;;;;;;;;;4995088;28;20046;-78
2022/05/13 11:53:45;;;;;;;7.32;2.03;;;;;;;;;;4995055;28;20095;-78
2022/05/13 11:56:29;;;;;;;8.15;1.80;;;;;;;;;;5011200;28;20666;-78
2022/05/13 11:58:56;;;;;;;7.13;1.90;;;;;;;;;;5011328;28;20042;-78
2022/05/13 12:01:35;;;;;;;9.43;1.88;;;;;;;;;;5011439;28;20516;-78
2022/05/13 12:04:13;;;;;;;6.38;1.92;;;;;;;;;;5012281;28;20060;-78
2022/05/13 12:06:51;;;;;;;5.55;1.90;;;;;;;;;;5011476;28;20058;-78
2022/05/13 12:09:22;;;;;;;5.75;1.77;;;;;;;;;;5010349;28;20067;-78
2022/05/13 12:11:51;;;;;;;8.60;2.00;;;;;;;;;;5002500;28;20108;-78
2022/05/13 12:14:30;;;;;;;6.35;1.75;;;;;;;;;;4991044;28;20169;-78
2022/05/13 12:16:56;;;;;;;8.50;1.70;;;;;;;;;;4991451;28;20073;-78
2022/05/13 12:19:28;;;;;;;6.13;1.50;;;;;;;;;;4990881;28;20046;-78
2022/05/13 12:22:01;;;;;;;6.57;1.85;;;;;;;;;;4991294;28;20077;-78
2022/05/13 12:24:29;;;;;;;10.60;2.05;;;;;;;;;;4990864;28;20053;-78
2022/05/13 12:26:59;;;;;;;9.75;1.80;;;;;;;;;;4991325;28;20043;-79
2022/05/13 12:29:36;;;;;;;9.50;1.95;;;;;;;;;;4991068;28;20046;-78
2022/05/13 12:32:02;;;;;;;6.15;1.70;;;;;;;;;;4991158;28;20046;-78
2022/05/13 12:37:33;;;;;;;11.75;2.38;;;;;;;;;;4990820;28;20053;-78
2022/05/13 12:40:05;;;;;;;7.03;1.98;;;;;;;;;;4991243;28;20402;-78
2022/05/13 12:42:58;;;;;;;6.30;1.90;;;;;;;;;;4991150;28;20048;-78
2022/05/13 12:45:39;;;;;;;7.00;2.08;;;;;;;;;;4959071;28;20111;-78
2022/05/13 12:48:08;;;;;;;10.80;2.65;;;;;;;;;;4990646;28;20079;-78
2022/05/13 12:50:42;;;;;;;7.78;2.40;;;;;;;;;;4990916;28;20046;-78
2022/05/13 12:53:27;;;;;;;10.93;2.72;;;;;;;;;;4990779;28;20042;-78
2022/05/13 12:55:55;;;;;;;7.05;1.98;;;;;;;;;;4991990;28;20173;-78
2022/05/13 12:58:21;;;;;;;8.93;1.77;;;;;;;;;;4990543;28;20043;-78
2022/05/13 13:00:49;;;;;;;8.05;1.90;;;;;;;;;;4974466;28;20046;-79
2022/05/13 13:03:15;;;;;;;5.22;1.80;;;;;;;;;;4990276;28;20039;-79
2022/05/13 13:05:45;;;;;;;7.70;1.92;;;;;;;;;;4989976;28;20498;-79
2022/05/13 13:08:11;;;;;;;11.68;1.95;;;;;;;;;;4990164;28;20050;-79
2022/05/13 13:10:37;;;;;;;6.03;1.80;;;;;;;;;;4990169;28;20042;-79
2022/05/13 13:13:23;;;;;;;9.90;1.70;;;;;;;;;;5008447;28;20038;-79
2022/05/13 13:15:59;;;;;;;7.03;2.15;;;;;;;;;;5009657;28;20049;-78
2022/05/13 13:18:35;;;;;;;9.05;1.88;;;;;;;;;;5009661;28;20053;-78
2022/05/13 13:21:04;;;;;;;7.75;1.83;;;;;;;;;;4993698;28;20513;-78
2022/05/13 13:23:33;;;;;;;5.43;1.48;;;;;;;;;;5009656;28;20050;-78
2022/05/13 13:26:00;;;;;;;8.38;1.52;;;;;;;;;;5009624;28;20052;-79
2022/05/13 13:28:31;;;;;;;7.93;1.88;;;;;;;;;;5009343;28;20053;-78
2022/05/13 13:31:10;;;;;;;6.50;1.67;;;;;;;;;;4993135;28;20487;-79
2022/05/13 13:33:44;;;;;;;7.50;1.88;;;;;;;;;;5009811;28;20490;-78
2022/05/13 13:36:14;;;;;;;9.18;2.03;;;;;;;;;;4992792;28;20061;-78
2022/05/13 13:38:42;;;;;;;7.25;1.75;;;;;;;;;;5009778;28;20525;-79
2022/05/13 13:41:08;;;;;;;8.90;1.85;;;;;;;;;;5008959;28;20046;-79
2022/05/13 13:43:34;;;;;;;8.50;1.80;;;;;;;;;;5009592;28;20058;-79
2022/05/13 13:46:09;;;;;;;7.90;1.75;;;;;;;;;;5009407;28;20485;-78
2022/05/13 13:48:40;;;;;;;5.72;1.65;;;;;;;;;;5009450;28;20072;-78
2022/05/13 13:51:07;;;;;;;9.95;2.15;;;;;;;;;;5008919;28;20045;-78
2022/05/13 13:53:41;;;;;;;7.70;1.70;;;;;;;;;;4992223;28;20041;-79
2022/05/13 13:56:13;;;;;;;7.22;1.98;;;;;;;;;;5009157;28;20528;-79
2022/05/13 13:58:45;;;;;;;5.53;1.50;;;;;;;;;;4992848;28;20073;-79
2022/05/13 14:01:29;;;;;;;6.07;1.33;;;;;;;;;;5008768;28;20365;-79
2022/05/13 14:04:10;;;;;;;5.53;1.60;;;;;;;;;;5009270;28;20477;-79
2022/05/13 14:06:36;;;;;;;9.13;1.50;;;;;;;;;;5008720;28;20082;-79
2022/05/13 14:09:03;;;;;;;5.95;1.73;;;;;;;;;;5009017;28;20041;-79
2022/05/13 14:11:33;;;;;;;10.43;2.20;;;;;;;;;;4986954;28;20525;-78
2022/05/13 14:14:02;;;;;;;5.93;1.83;;;;;;;;;;4989344;28;20042;-79
2022/05/13 14:16:30;;;;;;;8.60;2.35;;;;;;;;;;4988655;28;20097;-78
2022/05/13 14:19:07;;;;;;;9.63;2.20;;;;;;;;;;4988949;28;20482;-78
2022/05/13 14:21:34;;;;;;;5.70;1.98;;;;;;;;;;4989469;28;20042;-78
2022/05/13 14:24:04;;;;;;;6.88;1.80;;;;;;;;;;4989205;28;20073;-78
2022/05/13 14:26:32;;;;;;;6.43;2.00;;;;;;;;;;4989176;28;20046;-78
2022/05/13 14:29:00;;;;;;;10.05;2.22;;;;;;;;;;4989152;28;20038;-78
2022/05/13 14:31:36;;;;;;;9.52;2.70;;;;;;;;;;4988472;28;20057;-78
2022/05/13 14:34:10;;;;;;;7.20;2.13;;;;;;;;;;4989432;28;20053;-78
2022/05/13 14:36:41;;;;;;;9.27;2.10;;;;;;;;;;4988750;28;20046;-78
2022/05/13 14:41:59;;;;;;;9.27;2.60;;;;;;;;;;4988808;28;20085;-78
2022/05/13 14:44:29;;;;;;;7.32;2.33;;;;;;;;;;4989976;28;20037;-78
2022/05/13 14:47:00;;;;;;;11.90;2.97;;;;;;;;;;4989070;28;20046;-78
2022/05/13 14:49:31;;;;;;;9.10;2.88;;;;;;;;;;4988334;28;20084;-78
2022/05/13 14:51:57;;;;;;;8.57;2.75;;;;;;;;;;4988867;28;20050;-78
2022/05/13 14:54:25;;;;;;;18.38;3.60;;;;;;;;;;4990098;28;20042;-78
2022/05/13 14:56:54;;;;;;;8.52;2.42;;;;;;;;;;4988862;28;20050;-78
2022/05/13 14:59:28;;;;;;;8.38;2.70;;;;;;;;;;4988612;28;20046;-79
2022/05/13 15:01:55;;;;;;;8.52;2.60;;;;;;;;;;4989132;28;20501;-79
2022/05/13 15:04:28;;;;;;;6.10;1.88;;;;;;;;;;4988380;28;20058;-79
2022/05/13 15:06:55;;;;;;;6.05;1.77;;;;;;;;;;4992466;28;20054;-79
2022/05/13 15:09:21;;;;;;;7.88;1.70;;;;;;;;;;4992365;28;20046;-79
2022/05/13 15:11:48;;;;;;;10.55;2.25;;;;;;;;;;5000223;28;20053;-78
2022/05/13 15:14:14;;;;;;;8.45;2.03;;;;;;;;;;5011999;28;20405;-78
2022/05/13 15:16:40;;;;;;;7.22;2.30;;;;;;;;;;5011902;28;20046;-79
2022/05/13 15:19:06;;;;;;;9.15;2.35;;;;;;;;;;5011854;28;20050;-78